Monarch, Montana
Current Conditions -  °F | °C
As of 6:56 PM on Monday 22 Dec 2014 (Local Time) from KGFA Reporting Station
Broken Clouds Broken Clouds  
Wind Chill: -2°   Ceiling: 10000
Heat Index:   Visibility: 10mi
Dew Point: -3°   Wind: 6mph
Humidity: 76%   Direction: 260°W
Pressure: 30.1"   Gusts: NA
Location:  47.1°N, 110.83°W
Report Text: KGFA 230156Z AUTO 26005KT 10SM FEW075 BKN100 01/M03 A3010 RMK AO2 SLP224 T00081030
Loading
Personal Weather Stations






























Interactive Weather Map New forecast layout! Learn more

10-Day Weather Forecast

Advertisements
Track Severe Weather on mobile